sensor_id;sensor_type;location;lat;lon;timestamp;P1;durP1;ratioP1;P2;durP2;ratioP2
63434;SDS011;68814;50.872;5.306;2023-09-08T02:12:01;8.75;;;7.35;;
63434;SDS011;68814;50.872;5.306;2023-09-08T02:15:04;12.18;;;7.55;;
63434;SDS011;68814;50.872;5.306;2023-09-08T02:21:02;10.57;;;7.07;;
63434;SDS011;68814;50.872;5.306;2023-09-08T05:01:44;13.23;;;9.25;;
63434;SDS011;68814;50.872;5.306;2023-09-08T05:47:25;20.63;;;11.85;;
63434;SDS011;68814;50.872;5.306;2023-09-08T07:43:58;18.58;;;10.45;;
63434;SDS011;68814;50.872;5.306;2023-09-08T07:46:24;15.15;;;10.23;;
63434;SDS011;68814;50.872;5.306;2023-09-08T07:48:49;15.90;;;9.95;;
63434;SDS011;68814;50.872;5.306;2023-09-08T07:51:15;14.02;;;9.30;;
63434;SDS011;68814;50.872;5.306;2023-09-08T07:53:41;12.57;;;9.73;;
63434;SDS011;68814;50.872;5.306;2023-09-08T07:56:06;13.20;;;8.95;;
63434;SDS011;68814;50.872;5.306;2023-09-08T07:58:32;29.33;;;10.40;;
63434;SDS011;68814;50.872;5.306;2023-09-08T08:06:22;12.05;;;8.88;;
63434;SDS011;68814;50.872;5.306;2023-09-08T08:08:48;20.27;;;9.52;;
63434;SDS011;68814;50.872;5.306;2023-09-08T08:11:14;10.95;;;8.63;;
63434;SDS011;68814;50.872;5.306;2023-09-08T08:13:42;11.35;;;8.35;;
63434;SDS011;68814;50.872;5.306;2023-09-08T08:16:08;24.65;;;9.85;;
63434;SDS011;68814;50.872;5.306;2023-09-08T08:18:34;12.93;;;8.20;;
63434;SDS011;68814;50.872;5.306;2023-09-08T08:21:00;12.20;;;7.30;;
63434;SDS011;68814;50.872;5.306;2023-09-08T08:23:28;13.68;;;8.50;;
63434;SDS011;68814;50.872;5.306;2023-09-08T08:25:54;13.65;;;7.90;;
63434;SDS011;68814;50.872;5.306;2023-09-08T08:28:19;12.63;;;7.63;;
63434;SDS011;68814;50.872;5.306;2023-09-08T08:30:45;11.38;;;8.07;;
63434;SDS011;68814;50.872;5.306;2023-09-08T08:33:12;11.90;;;7.55;;
63434;SDS011;68814;50.872;5.306;2023-09-08T08:35:38;14.55;;;7.82;;
63434;SDS011;68814;50.872;5.306;2023-09-08T08:38:04;13.43;;;7.63;;
63434;SDS011;68814;50.872;5.306;2023-09-08T08:40:30;12.57;;;8.82;;
63434;SDS011;68814;50.872;5.306;2023-09-08T08:45:29;10.55;;;8.35;;
63434;SDS011;68814;50.872;5.306;2023-09-08T08:47:55;9.98;;;7.38;;
63434;SDS011;68814;50.872;5.306;2023-09-08T08:50:23;12.38;;;7.72;;
63434;SDS011;68814;50.872;5.306;2023-09-08T08:52:49;11.15;;;8.30;;
63434;SDS011;68814;50.872;5.306;2023-09-08T08:55:15;15.50;;;8.13;;
63434;SDS011;68814;50.872;5.306;2023-09-08T08:57:41;12.00;;;8.10;;
63434;SDS011;68814;50.872;5.306;2023-09-08T09:00:07;14.82;;;8.00;;
63434;SDS011;68814;50.872;5.306;2023-09-08T09:02:39;11.13;;;7.47;;
63434;SDS011;68814;50.872;5.306;2023-09-08T09:05:15;13.50;;;7.78;;
63434;SDS011;68814;50.872;5.306;2023-09-08T09:07:41;9.95;;;7.55;;
63434;SDS011;68814;50.872;5.306;2023-09-08T09:10:07;10.82;;;7.40;;
63434;SDS011;68814;50.872;5.306;2023-09-08T09:12:35;15.23;;;7.57;;
63434;SDS011;68814;50.872;5.306;2023-09-08T09:15:02;9.98;;;7.53;;
63434;SDS011;68814;50.872;5.306;2023-09-08T09:17:29;13.15;;;7.38;;
63434;SDS011;68814;50.872;5.306;2023-09-08T09:20:17;17.77;;;7.35;;
63434;SDS011;68814;50.872;5.306;2023-09-08T09:22:45;8.13;;;6.90;;
63434;SDS011;68814;50.872;5.306;2023-09-08T09:25:21;12.20;;;7.13;;
63434;SDS011;68814;50.872;5.306;2023-09-08T09:27:53;8.60;;;6.90;;
63434;SDS011;68814;50.872;5.306;2023-09-08T09:30:20;9.23;;;6.88;;
63434;SDS011;68814;50.872;5.306;2023-09-08T09:32:46;8.40;;;5.93;;
63434;SDS011;68814;50.872;5.306;2023-09-08T09:35:14;10.77;;;6.07;;
63434;SDS011;68814;50.872;5.306;2023-09-08T09:37:41;9.52;;;6.38;;
63434;SDS011;68814;50.872;5.306;2023-09-08T09:40:07;15.27;;;6.45;;
63434;SDS011;68814;50.872;5.306;2023-09-08T09:42:36;6.82;;;5.10;;
63434;SDS011;68814;50.872;5.306;2023-09-08T09:45:05;9.07;;;6.72;;
63434;SDS011;68814;50.872;5.306;2023-09-08T09:47:31;6.78;;;5.90;;
63434;SDS011;68814;50.872;5.306;2023-09-08T09:49:57;10.13;;;6.07;;
63434;SDS011;68814;50.872;5.306;2023-09-08T09:52:24;7.00;;;6.03;;
63434;SDS011;68814;50.872;5.306;2023-09-08T09:54:52;14.88;;;6.32;;
63434;SDS011;68814;50.872;5.306;2023-09-08T09:57:20;10.15;;;6.03;;
63434;SDS011;68814;50.872;5.306;2023-09-08T09:59:47;6.80;;;5.50;;
63434;SDS011;68814;50.872;5.306;2023-09-08T10:02:16;11.57;;;6.80;;
63434;SDS011;68814;50.872;5.306;2023-09-08T10:04:47;8.35;;;6.35;;
63434;SDS011;68814;50.872;5.306;2023-09-08T10:07:14;6.22;;;4.65;;
63434;SDS011;68814;50.872;5.306;2023-09-08T10:09:41;7.32;;;5.00;;
63434;SDS011;68814;50.872;5.306;2023-09-08T10:12:08;8.10;;;4.85;;
63434;SDS011;68814;50.872;5.306;2023-09-08T10:14:39;9.25;;;5.05;;
63434;SDS011;68814;50.872;5.306;2023-09-08T10:17:18;6.15;;;4.85;;
63434;SDS011;68814;50.872;5.306;2023-09-08T10:19:50;5.25;;;4.57;;
63434;SDS011;68814;50.872;5.306;2023-09-08T10:22:26;7.10;;;4.30;;
63434;SDS011;68814;50.872;5.306;2023-09-08T10:24:56;9.27;;;3.90;;
63434;SDS011;68814;50.872;5.306;2023-09-08T10:27:26;5.80;;;4.47;;
63434;SDS011;68814;50.872;5.306;2023-09-08T10:30:00;5.47;;;4.60;;
63434;SDS011;68814;50.872;5.306;2023-09-08T10:32:28;11.60;;;4.68;;
63434;SDS011;68814;50.872;5.306;2023-09-08T10:34:54;6.07;;;3.70;;
63434;SDS011;68814;50.872;5.306;2023-09-08T10:37:23;6.30;;;3.72;;
63434;SDS011;68814;50.872;5.306;2023-09-08T10:39:50;10.68;;;4.15;;
63434;SDS011;68814;50.872;5.306;2023-09-08T10:49:55;7.38;;;3.65;;
63434;SDS011;68814;50.872;5.306;2023-09-08T10:52:23;6.22;;;4.00;;
63434;SDS011;68814;50.872;5.306;2023-09-08T10:54:53;4.65;;;3.88;;
63434;SDS011;68814;50.872;5.306;2023-09-08T10:57:20;6.05;;;3.75;;
63434;SDS011;68814;50.872;5.306;2023-09-08T11:00:00;8.13;;;4.22;;
63434;SDS011;68814;50.872;5.306;2023-09-08T11:02:40;8.10;;;4.25;;
63434;SDS011;68814;50.872;5.306;2023-09-08T11:05:07;11.38;;;3.95;;
63434;SDS011;68814;50.872;5.306;2023-09-08T11:07:35;11.60;;;4.28;;
63434;SDS011;68814;50.872;5.306;2023-09-08T11:10:02;8.90;;;4.55;;
63434;SDS011;68814;50.872;5.306;2023-09-08T11:12:29;4.95;;;4.28;;
63434;SDS011;68814;50.872;5.306;2023-09-08T11:14:55;8.05;;;3.80;;
63434;SDS011;68814;50.872;5.306;2023-09-08T11:17:25;5.82;;;4.07;;
63434;SDS011;68814;50.872;5.306;2023-09-08T11:19:51;6.53;;;3.90;;
63434;SDS011;68814;50.872;5.306;2023-09-08T11:22:17;6.10;;;3.85;;
63434;SDS011;68814;50.872;5.306;2023-09-08T11:24:43;7.20;;;4.15;;
63434;SDS011;68814;50.872;5.306;2023-09-08T11:27:10;4.55;;;3.22;;
63434;SDS011;68814;50.872;5.306;2023-09-08T11:29:36;5.57;;;4.03;;
63434;SDS011;68814;50.872;5.306;2023-09-08T11:32:06;4.22;;;3.80;;
63434;SDS011;68814;50.872;5.306;2023-09-08T11:34:32;5.25;;;3.70;;
63434;SDS011;68814;50.872;5.306;2023-09-08T11:36:59;7.13;;;3.65;;
63434;SDS011;68814;50.872;5.306;2023-09-08T11:39:25;5.03;;;3.22;;
63434;SDS011;68814;50.872;5.306;2023-09-08T11:41:51;5.53;;;3.88;;
63434;SDS011;68814;50.872;5.306;2023-09-08T11:44:18;6.47;;;3.97;;
63434;SDS011;68814;50.872;5.306;2023-09-08T11:46:44;6.63;;;4.30;;
63434;SDS011;68814;50.872;5.306;2023-09-08T11:49:10;4.25;;;3.30;;
63434;SDS011;68814;50.872;5.306;2023-09-08T11:51:39;11.43;;;4.45;;
63434;SDS011;68814;50.872;5.306;2023-09-08T11:54:04;7.35;;;3.95;;
63434;SDS011;68814;50.872;5.306;2023-09-08T11:56:30;8.63;;;4.30;;
63434;SDS011;68814;50.872;5.306;2023-09-08T11:58:57;5.88;;;3.85;;
63434;SDS011;68814;50.872;5.306;2023-09-08T12:01:23;7.38;;;3.85;;
63434;SDS011;68814;50.872;5.306;2023-09-08T12:03:53;7.60;;;3.65;;
63434;SDS011;68814;50.872;5.306;2023-09-08T12:06:22;6.10;;;3.70;;
63434;SDS011;68814;50.872;5.306;2023-09-08T12:08:53;9.48;;;4.03;;
63434;SDS011;68814;50.872;5.306;2023-09-08T12:11:24;6.53;;;3.90;;
63434;SDS011;68814;50.872;5.306;2023-09-08T12:14:06;4.82;;;4.05;;
63434;SDS011;68814;50.872;5.306;2023-09-08T12:16:32;9.60;;;4.15;;
63434;SDS011;68814;50.872;5.306;2023-09-08T12:18:58;13.20;;;4.43;;
63434;SDS011;68814;50.872;5.306;2023-09-08T12:21:24;5.95;;;3.55;;
63434;SDS011;68814;50.872;5.306;2023-09-08T12:23:50;7.78;;;3.72;;
63434;SDS011;68814;50.872;5.306;2023-09-08T12:26:17;10.15;;;3.38;;
63434;SDS011;68814;50.872;5.306;2023-09-08T12:28:44;10.68;;;5.03;;
63434;SDS011;68814;50.872;5.306;2023-09-08T12:31:12;8.75;;;3.80;;
63434;SDS011;68814;50.872;5.306;2023-09-08T12:33:38;10.13;;;3.70;;
63434;SDS011;68814;50.872;5.306;2023-09-08T12:36:14;6.38;;;3.13;;
63434;SDS011;68814;50.872;5.306;2023-09-08T12:38:47;7.88;;;3.50;;
63434;SDS011;68814;50.872;5.306;2023-09-08T12:41:14;5.30;;;3.30;;
63434;SDS011;68814;50.872;5.306;2023-09-08T12:43:40;5.65;;;3.08;;
63434;SDS011;68814;50.872;5.306;2023-09-08T12:46:05;4.05;;;2.75;;
63434;SDS011;68814;50.872;5.306;2023-09-08T12:48:31;4.93;;;3.00;;
63434;SDS011;68814;50.872;5.306;2023-09-08T12:50:57;7.40;;;3.15;;
63434;SDS011;68814;50.872;5.306;2023-09-08T12:53:23;2.95;;;2.70;;
63434;SDS011;68814;50.872;5.306;2023-09-08T12:55:49;8.40;;;3.20;;
63434;SDS011;68814;50.872;5.306;2023-09-08T12:58:15;8.27;;;3.70;;
63434;SDS011;68814;50.872;5.306;2023-09-08T13:00:51;8.57;;;3.10;;
63434;SDS011;68814;50.872;5.306;2023-09-08T13:03:16;7.13;;;2.88;;
63434;SDS011;68814;50.872;5.306;2023-09-08T13:05:42;7.95;;;3.28;;
63434;SDS011;68814;50.872;5.306;2023-09-08T13:08:08;5.80;;;3.13;;
63434;SDS011;68814;50.872;5.306;2023-09-08T13:10:33;6.22;;;3.30;;
63434;SDS011;68814;50.872;5.306;2023-09-08T13:12:59;5.22;;;2.85;;
63434;SDS011;68814;50.872;5.306;2023-09-08T13:15:25;6.63;;;2.67;;
63434;SDS011;68814;50.872;5.306;2023-09-08T13:17:50;7.60;;;3.10;;
63434;SDS011;68814;50.872;5.306;2023-09-08T13:20:16;5.95;;;3.20;;
63434;SDS011;68814;50.872;5.306;2023-09-08T13:22:42;3.95;;;2.90;;
63434;SDS011;68814;50.872;5.306;2023-09-08T13:25:08;3.90;;;3.10;;
63434;SDS011;68814;50.872;5.306;2023-09-08T13:27:34;4.85;;;3.20;;
63434;SDS011;68814;50.872;5.306;2023-09-08T13:30:09;7.28;;;3.00;;
63434;SDS011;68814;50.872;5.306;2023-09-08T13:32:36;5.93;;;2.85;;
63434;SDS011;68814;50.872;5.306;2023-09-08T13:35:03;6.95;;;3.40;;
63434;SDS011;68814;50.872;5.306;2023-09-08T13:37:29;11.65;;;3.00;;
63434;SDS011;68814;50.872;5.306;2023-09-08T13:39:56;7.68;;;2.97;;
63434;SDS011;68814;50.872;5.306;2023-09-08T13:42:21;6.00;;;2.60;;
63434;SDS011;68814;50.872;5.306;2023-09-08T13:44:47;3.33;;;2.85;;
63434;SDS011;68814;50.872;5.306;2023-09-08T13:47:13;7.75;;;3.20;;
63434;SDS011;68814;50.872;5.306;2023-09-08T13:49:39;4.10;;;2.60;;
63434;SDS011;68814;50.872;5.306;2023-09-08T13:52:04;4.63;;;3.05;;
63434;SDS011;68814;50.872;5.306;2023-09-08T13:54:31;7.18;;;2.70;;
63434;SDS011;68814;50.872;5.306;2023-09-08T13:57:03;11.57;;;2.70;;
63434;SDS011;68814;50.872;5.306;2023-09-08T13:59:29;12.63;;;2.80;;
63434;SDS011;68814;50.872;5.306;2023-09-08T14:01:56;4.95;;;2.60;;
63434;SDS011;68814;50.872;5.306;2023-09-08T14:04:22;5.68;;;2.40;;
63434;SDS011;68814;50.872;5.306;2023-09-08T14:06:49;4.65;;;2.60;;
63434;SDS011;68814;50.872;5.306;2023-09-08T14:09:14;6.55;;;2.67;;
63434;SDS011;68814;50.872;5.306;2023-09-08T14:11:40;7.22;;;3.00;;
63434;SDS011;68814;50.872;5.306;2023-09-08T14:14:06;5.65;;;2.67;;
63434;SDS011;68814;50.872;5.306;2023-09-08T14:16:32;5.82;;;2.97;;
63434;SDS011;68814;50.872;5.306;2023-09-08T14:18:57;5.25;;;2.60;;
63434;SDS011;68814;50.872;5.306;2023-09-08T14:21:23;7.43;;;2.78;;
63434;SDS011;68814;50.872;5.306;2023-09-08T14:23:49;4.82;;;2.35;;
63434;SDS011;68814;50.872;5.306;2023-09-08T14:26:14;7.00;;;2.50;;
63434;SDS011;68814;50.872;5.306;2023-09-08T14:28:40;6.43;;;2.58;;
63434;SDS011;68814;50.872;5.306;2023-09-08T14:31:06;5.70;;;2.40;;
63434;SDS011;68814;50.872;5.306;2023-09-08T14:33:31;6.18;;;2.33;;
63434;SDS011;68814;50.872;5.306;2023-09-08T14:35:57;9.57;;;2.72;;
63434;SDS011;68814;50.872;5.306;2023-09-08T14:38:23;5.22;;;2.63;;
63434;SDS011;68814;50.872;5.306;2023-09-08T14:40:56;5.63;;;2.40;;
63434;SDS011;68814;50.872;5.306;2023-09-08T14:43:26;4.43;;;2.28;;
63434;SDS011;68814;50.872;5.306;2023-09-08T14:45:53;4.15;;;2.35;;
63434;SDS011;68814;50.872;5.306;2023-09-08T14:48:19;3.58;;;2.45;;
63434;SDS011;68814;50.872;5.306;2023-09-08T14:50:45;7.13;;;2.60;;
63434;SDS011;68814;50.872;5.306;2023-09-08T14:53:11;5.32;;;2.45;;
63434;SDS011;68814;50.872;5.306;2023-09-08T14:55:37;5.90;;;2.88;;
63434;SDS011;68814;50.872;5.306;2023-09-08T14:58:03;5.45;;;2.53;;
63434;SDS011;68814;50.872;5.306;2023-09-08T15:00:31;5.10;;;2.63;;
63434;SDS011;68814;50.872;5.306;2023-09-08T15:02:57;10.57;;;3.05;;
63434;SDS011;68814;50.872;5.306;2023-09-08T15:05:22;3.75;;;2.25;;
63434;SDS011;68814;50.872;5.306;2023-09-08T15:07:48;10.35;;;2.90;;
63434;SDS011;68814;50.872;5.306;2023-09-08T15:10:14;8.68;;;2.90;;
63434;SDS011;68814;50.872;5.306;2023-09-08T15:12:40;3.72;;;2.70;;
63434;SDS011;68814;50.872;5.306;2023-09-08T15:15:06;3.65;;;2.45;;
63434;SDS011;68814;50.872;5.306;2023-09-08T15:17:32;7.70;;;3.53;;
63434;SDS011;68814;50.872;5.306;2023-09-08T15:19:58;4.72;;;2.60;;
63434;SDS011;68814;50.872;5.306;2023-09-08T15:22:24;6.70;;;3.60;;
63434;SDS011;68814;50.872;5.306;2023-09-08T15:24:50;6.18;;;2.65;;
63434;SDS011;68814;50.872;5.306;2023-09-08T15:27:16;4.93;;;2.83;;
63434;SDS011;68814;50.872;5.306;2023-09-08T15:29:42;6.72;;;2.58;;
63434;SDS011;68814;50.872;5.306;2023-09-08T15:32:07;4.32;;;2.40;;
63434;SDS011;68814;50.872;5.306;2023-09-08T15:34:33;7.00;;;2.70;;
63434;SDS011;68814;50.872;5.306;2023-09-08T15:36:59;5.50;;;2.38;;
63434;SDS011;68814;50.872;5.306;2023-09-08T15:39:25;5.07;;;2.40;;
63434;SDS011;68814;50.872;5.306;2023-09-08T15:41:51;10.73;;;2.55;;
63434;SDS011;68814;50.872;5.306;2023-09-08T15:44:17;7.97;;;2.78;;
63434;SDS011;68814;50.872;5.306;2023-09-08T15:46:43;7.20;;;2.55;;
63434;SDS011;68814;50.872;5.306;2023-09-08T15:49:10;8.00;;;2.53;;
63434;SDS011;68814;50.872;5.306;2023-09-08T15:51:36;4.82;;;2.35;;
63434;SDS011;68814;50.872;5.306;2023-09-08T15:54:02;3.58;;;2.55;;
63434;SDS011;68814;50.872;5.306;2023-09-08T15:56:28;8.02;;;2.35;;
63434;SDS011;68814;50.872;5.306;2023-09-08T15:58:54;6.43;;;2.70;;
63434;SDS011;68814;50.872;5.306;2023-09-08T16:01:21;6.93;;;2.38;;
63434;SDS011;68814;50.872;5.306;2023-09-08T16:03:47;7.97;;;2.83;;
63434;SDS011;68814;50.872;5.306;2023-09-08T16:06:13;8.90;;;2.15;;
63434;SDS011;68814;50.872;5.306;2023-09-08T16:08:38;5.18;;;2.50;;
63434;SDS011;68814;50.872;5.306;2023-09-08T16:11:04;9.15;;;2.60;;
63434;SDS011;68814;50.872;5.306;2023-09-08T16:13:32;9.80;;;2.33;;
63434;SDS011;68814;50.872;5.306;2023-09-08T16:15:58;5.75;;;2.30;;
63434;SDS011;68814;50.872;5.306;2023-09-08T16:18:24;9.68;;;2.50;;
63434;SDS011;68814;50.872;5.306;2023-09-08T16:20:52;6.40;;;2.75;;
63434;SDS011;68814;50.872;5.306;2023-09-08T16:23:17;8.27;;;2.65;;
63434;SDS011;68814;50.872;5.306;2023-09-08T16:25:45;6.03;;;2.53;;
63434;SDS011;68814;50.872;5.306;2023-09-08T16:28:11;9.65;;;2.25;;
63434;SDS011;68814;50.872;5.306;2023-09-08T16:30:37;8.35;;;2.92;;
63434;SDS011;68814;50.872;5.306;2023-09-08T16:33:02;6.57;;;2.60;;
63434;SDS011;68814;50.872;5.306;2023-09-08T16:35:38;6.07;;;2.33;;
63434;SDS011;68814;50.872;5.306;2023-09-08T16:38:05;6.57;;;2.40;;
63434;SDS011;68814;50.872;5.306;2023-09-08T16:40:31;6.75;;;2.33;;
63434;SDS011;68814;50.872;5.306;2023-09-08T16:42:57;8.38;;;2.88;;
63434;SDS011;68814;50.872;5.306;2023-09-08T16:45:29;7.90;;;3.10;;
63434;SDS011;68814;50.872;5.306;2023-09-08T16:48:15;3.55;;;2.50;;
63434;SDS011;68814;50.872;5.306;2023-09-08T16:50:48;4.72;;;2.45;;
63434;SDS011;68814;50.872;5.306;2023-09-08T16:53:22;7.60;;;2.73;;
63434;SDS011;68814;50.872;5.306;2023-09-08T16:55:48;7.55;;;2.22;;
63434;SDS011;68814;50.872;5.306;2023-09-08T16:58:14;5.80;;;2.65;;
63434;SDS011;68814;50.872;5.306;2023-09-08T17:00:39;6.57;;;2.70;;
63434;SDS011;68814;50.872;5.306;2023-09-08T17:03:05;4.78;;;2.50;;
63434;SDS011;68814;50.872;5.306;2023-09-08T17:05:31;8.70;;;2.95;;
63434;SDS011;68814;50.872;5.306;2023-09-08T17:07:56;5.90;;;2.97;;
63434;SDS011;68814;50.872;5.306;2023-09-08T17:10:22;7.07;;;3.20;;
63434;SDS011;68814;50.872;5.306;2023-09-08T17:12:48;5.65;;;3.30;;
63434;SDS011;68814;50.872;5.306;2023-09-08T17:15:13;5.18;;;3.13;;
63434;SDS011;68814;50.872;5.306;2023-09-08T17:17:39;4.70;;;2.97;;
63434;SDS011;68814;50.872;5.306;2023-09-08T17:20:05;6.63;;;3.38;;
63434;SDS011;68814;50.872;5.306;2023-09-08T17:22:31;5.90;;;3.30;;
63434;SDS011;68814;50.872;5.306;2023-09-08T17:24:57;6.07;;;2.92;;
63434;SDS011;68814;50.872;5.306;2023-09-08T17:27:23;8.25;;;3.40;;
63434;SDS011;68814;50.872;5.306;2023-09-08T17:29:48;7.40;;;3.60;;
63434;SDS011;68814;50.872;5.306;2023-09-08T17:32:14;7.22;;;2.85;;
63434;SDS011;68814;50.872;5.306;2023-09-08T17:34:40;6.43;;;3.05;;
63434;SDS011;68814;50.872;5.306;2023-09-08T17:37:06;4.32;;;3.17;;
63434;SDS011;68814;50.872;5.306;2023-09-08T17:39:31;6.70;;;3.45;;
63434;SDS011;68814;50.872;5.306;2023-09-08T17:41:59;7.30;;;3.70;;
63434;SDS011;68814;50.872;5.306;2023-09-08T17:44:25;10.63;;;3.85;;
63434;SDS011;68814;50.872;5.306;2023-09-08T17:46:51;6.35;;;4.15;;
63434;SDS011;68814;50.872;5.306;2023-09-08T17:49:19;5.90;;;3.47;;
63434;SDS011;68814;50.872;5.306;2023-09-08T17:51:44;8.27;;;3.78;;
63434;SDS011;68814;50.872;5.306;2023-09-08T17:54:10;6.55;;;3.60;;
63434;SDS011;68814;50.872;5.306;2023-09-08T17:56:36;6.05;;;4.15;;
63434;SDS011;68814;50.872;5.306;2023-09-08T17:59:01;8.75;;;3.75;;
63434;SDS011;68814;50.872;5.306;2023-09-08T18:01:27;9.23;;;3.80;;
63434;SDS011;68814;50.872;5.306;2023-09-08T18:03:53;8.13;;;3.83;;
63434;SDS011;68814;50.872;5.306;2023-09-08T18:06:18;4.97;;;3.63;;
63434;SDS011;68814;50.872;5.306;2023-09-08T18:08:44;8.93;;;4.00;;
63434;SDS011;68814;50.872;5.306;2023-09-08T18:11:10;10.18;;;4.18;;
63434;SDS011;68814;50.872;5.306;2023-09-08T18:13:36;7.22;;;3.42;;
63434;SDS011;68814;50.872;5.306;2023-09-08T18:16:03;5.13;;;3.15;;
63434;SDS011;68814;50.872;5.306;2023-09-08T18:18:29;9.68;;;3.90;;
63434;SDS011;68814;50.872;5.306;2023-09-08T18:20:55;14.70;;;4.72;;
63434;SDS011;68814;50.872;5.306;2023-09-08T18:23:21;10.02;;;3.72;;
63434;SDS011;68814;50.872;5.306;2023-09-08T18:25:47;7.00;;;3.67;;
63434;SDS011;68814;50.872;5.306;2023-09-08T18:28:15;5.10;;;3.72;;
63434;SDS011;68814;50.872;5.306;2023-09-08T18:30:41;7.03;;;3.85;;
63434;SDS011;68814;50.872;5.306;2023-09-08T18:33:10;7.35;;;3.72;;
63434;SDS011;68814;50.872;5.306;2023-09-08T18:35:36;7.53;;;4.15;;
63434;SDS011;68814;50.872;5.306;2023-09-08T18:38:04;6.80;;;3.60;;
63434;SDS011;68814;50.872;5.306;2023-09-08T18:40:31;10.25;;;4.15;;
63434;SDS011;68814;50.872;5.306;2023-09-08T18:43:00;8.30;;;4.47;;
63434;SDS011;68814;50.872;5.306;2023-09-08T18:45:26;9.30;;;4.05;;
63434;SDS011;68814;50.872;5.306;2023-09-08T18:47:51;9.57;;;4.20;;
63434;SDS011;68814;50.872;5.306;2023-09-08T18:50:17;10.02;;;4.30;;
63434;SDS011;68814;50.872;5.306;2023-09-08T18:52:42;12.35;;;4.80;;
63434;SDS011;68814;50.872;5.306;2023-09-08T18:55:08;7.68;;;4.72;;
63434;SDS011;68814;50.872;5.306;2023-09-08T18:57:34;13.05;;;4.43;;
63434;SDS011;68814;50.872;5.306;2023-09-08T18:59:59;14.88;;;4.80;;
63434;SDS011;68814;50.872;5.306;2023-09-08T19:02:28;13.35;;;5.18;;
63434;SDS011;68814;50.872;5.306;2023-09-08T19:04:54;7.10;;;4.75;;
63434;SDS011;68814;50.872;5.306;2023-09-08T19:07:19;7.75;;;4.82;;
63434;SDS011;68814;50.872;5.306;2023-09-08T19:09:45;8.25;;;4.38;;
63434;SDS011;68814;50.872;5.306;2023-09-08T19:12:11;12.57;;;5.28;;
63434;SDS011;68814;50.872;5.306;2023-09-08T19:14:37;7.28;;;5.45;;
63434;SDS011;68814;50.872;5.306;2023-09-08T19:17:02;7.32;;;5.60;;
63434;SDS011;68814;50.872;5.306;2023-09-08T19:19:28;16.75;;;5.10;;
63434;SDS011;68814;50.872;5.306;2023-09-08T19:21:54;6.55;;;4.68;;
63434;SDS011;68814;50.872;5.306;2023-09-08T19:24:21;9.18;;;5.57;;
63434;SDS011;68814;50.872;5.306;2023-09-08T19:26:48;10.27;;;5.90;;
63434;SDS011;68814;50.872;5.306;2023-09-08T19:29:14;7.03;;;5.32;;
63434;SDS011;68814;50.872;5.306;2023-09-08T19:31:39;7.35;;;5.00;;
63434;SDS011;68814;50.872;5.306;2023-09-08T19:34:05;10.38;;;5.35;;
63434;SDS011;68814;50.872;5.306;2023-09-08T19:36:41;14.48;;;5.75;;
63434;SDS011;68814;50.872;5.306;2023-09-08T19:41:35;11.30;;;5.80;;
63434;SDS011;68814;50.872;5.306;2023-09-08T19:44:01;13.73;;;5.75;;
63434;SDS011;68814;50.872;5.306;2023-09-08T19:46:28;7.40;;;5.10;;
63434;SDS011;68814;50.872;5.306;2023-09-08T19:48:54;10.50;;;6.65;;
63434;SDS011;68814;50.872;5.306;2023-09-08T19:51:20;11.30;;;6.03;;
63434;SDS011;68814;50.872;5.306;2023-09-08T19:53:45;11.85;;;7.45;;
63434;SDS011;68814;50.872;5.306;2023-09-08T19:56:11;13.68;;;7.13;;
63434;SDS011;68814;50.872;5.306;2023-09-08T19:58:36;10.13;;;6.63;;
63434;SDS011;68814;50.872;5.306;2023-09-08T20:01:05;13.77;;;6.50;;
63434;SDS011;68814;50.872;5.306;2023-09-08T20:03:34;11.65;;;6.75;;
63434;SDS011;68814;50.872;5.306;2023-09-08T20:05:59;12.60;;;6.95;;
63434;SDS011;68814;50.872;5.306;2023-09-08T20:08:26;8.57;;;6.00;;
63434;SDS011;68814;50.872;5.306;2023-09-08T20:10:52;10.50;;;6.03;;
63434;SDS011;68814;50.872;5.306;2023-09-08T20:13:28;10.52;;;6.88;;
63434;SDS011;68814;50.872;5.306;2023-09-08T20:15:57;12.35;;;6.47;;
63434;SDS011;68814;50.872;5.306;2023-09-08T20:18:37;9.27;;;6.88;;
63434;SDS011;68814;50.872;5.306;2023-09-08T20:21:03;9.73;;;6.63;;
63434;SDS011;68814;50.872;5.306;2023-09-08T20:23:30;10.23;;;6.05;;
63434;SDS011;68814;50.872;5.306;2023-09-08T20:25:59;8.98;;;6.35;;
63434;SDS011;68814;50.872;5.306;2023-09-08T20:28:25;10.13;;;6.43;;
63434;SDS011;68814;50.872;5.306;2023-09-08T20:30:51;11.63;;;6.20;;
63434;SDS011;68814;50.872;5.306;2023-09-08T20:33:22;11.63;;;6.80;;
63434;SDS011;68814;50.872;5.306;2023-09-08T20:35:48;13.95;;;7.40;;
63434;SDS011;68814;50.872;5.306;2023-09-08T20:38:14;9.85;;;6.40;;
63434;SDS011;68814;50.872;5.306;2023-09-08T20:40:46;9.05;;;6.50;;
63434;SDS011;68814;50.872;5.306;2023-09-08T20:43:32;10.18;;;6.25;;
63434;SDS011;68814;50.872;5.306;2023-09-08T20:45:59;7.32;;;6.50;;
63434;SDS011;68814;50.872;5.306;2023-09-08T20:48:31;11.80;;;6.30;;
63434;SDS011;68814;50.872;5.306;2023-09-08T20:51:08;14.85;;;6.30;;
63434;SDS011;68814;50.872;5.306;2023-09-08T20:53:38;9.25;;;6.30;;
63434;SDS011;68814;50.872;5.306;2023-09-08T20:56:06;9.95;;;6.57;;
63434;SDS011;68814;50.872;5.306;2023-09-08T20:58:32;11.80;;;6.93;;
63434;SDS011;68814;50.872;5.306;2023-09-08T21:00:59;8.52;;;5.97;;
63434;SDS011;68814;50.872;5.306;2023-09-08T21:03:26;13.70;;;7.10;;
63434;SDS011;68814;50.872;5.306;2023-09-08T21:06:11;11.23;;;6.57;;
63434;SDS011;68814;50.872;5.306;2023-09-08T21:08:37;10.73;;;6.78;;
63434;SDS011;68814;50.872;5.306;2023-09-08T21:11:03;11.23;;;6.43;;
63434;SDS011;68814;50.872;5.306;2023-09-08T21:13:29;10.63;;;7.25;;
63434;SDS011;68814;50.872;5.306;2023-09-08T21:15:57;10.68;;;7.00;;
63434;SDS011;68814;50.872;5.306;2023-09-08T21:18:23;10.38;;;7.28;;
63434;SDS011;68814;50.872;5.306;2023-09-08T21:20:49;7.88;;;6.18;;
63434;SDS011;68814;50.872;5.306;2023-09-08T21:23:15;8.15;;;6.10;;
63434;SDS011;68814;50.872;5.306;2023-09-08T21:25:42;10.00;;;7.38;;
63434;SDS011;68814;50.872;5.306;2023-09-08T21:28:08;14.95;;;7.72;;
63434;SDS011;68814;50.872;5.306;2023-09-08T21:30:34;11.10;;;7.00;;
63434;SDS011;68814;50.872;5.306;2023-09-08T21:32:59;11.55;;;6.60;;
63434;SDS011;68814;50.872;5.306;2023-09-08T21:35:25;8.73;;;7.03;;
63434;SDS011;68814;50.872;5.306;2023-09-08T21:37:51;13.65;;;8.10;;
63434;SDS011;68814;50.872;5.306;2023-09-08T21:40:17;14.48;;;7.50;;
63434;SDS011;68814;50.872;5.306;2023-09-08T21:42:42;10.52;;;7.05;;
63434;SDS011;68814;50.872;5.306;2023-09-08T21:45:08;10.00;;;6.82;;
63434;SDS011;68814;50.872;5.306;2023-09-08T21:47:34;9.18;;;7.70;;
63434;SDS011;68814;50.872;5.306;2023-09-08T21:50:00;11.40;;;6.90;;
63434;SDS011;68814;50.872;5.306;2023-09-08T21:52:26;9.80;;;7.82;;
63434;SDS011;68814;50.872;5.306;2023-09-08T21:54:52;13.43;;;7.70;;
63434;SDS011;68814;50.872;5.306;2023-09-08T21:57:17;9.20;;;7.05;;
63434;SDS011;68814;50.872;5.306;2023-09-08T21:59:43;10.80;;;7.22;;
63434;SDS011;68814;50.872;5.306;2023-09-08T22:02:09;10.48;;;8.35;;
63434;SDS011;68814;50.872;5.306;2023-09-08T22:04:34;15.40;;;7.93;;
63434;SDS011;68814;50.872;5.306;2023-09-08T22:07:00;11.35;;;8.75;;
63434;SDS011;68814;50.872;5.306;2023-09-08T22:09:25;14.82;;;7.85;;
63434;SDS011;68814;50.872;5.306;2023-09-08T22:11:51;12.50;;;7.45;;
63434;SDS011;68814;50.872;5.306;2023-09-08T22:14:17;8.55;;;7.30;;
63434;SDS011;68814;50.872;5.306;2023-09-08T22:16:43;9.32;;;7.90;;
63434;SDS011;68814;50.872;5.306;2023-09-08T22:19:09;11.98;;;8.60;;
63434;SDS011;68814;50.872;5.306;2023-09-08T22:21:35;10.20;;;7.40;;
63434;SDS011;68814;50.872;5.306;2023-09-08T22:24:01;12.15;;;8.00;;
63434;SDS011;68814;50.872;5.306;2023-09-08T22:26:27;11.35;;;7.68;;
63434;SDS011;68814;50.872;5.306;2023-09-08T22:28:53;10.20;;;7.30;;
63434;SDS011;68814;50.872;5.306;2023-09-08T22:31:18;8.88;;;7.38;;